sensor_id;sensor_type;location;lat;lon;timestamp;P1;durP1;ratioP1;P2;durP2;ratioP2
18997;SDS011;9632;51.018;4.284;2022-08-01T00:00:58;2.53;;;1.60;;
18997;SDS011;9632;51.018;4.284;2022-08-01T00:03:24;4.75;;;2.08;;
18997;SDS011;9632;51.018;4.284;2022-08-01T00:05:49;5.75;;;2.10;;
18997;SDS011;9632;51.018;4.284;2022-08-01T00:08:15;5.35;;;1.75;;
18997;SDS011;9632;51.018;4.284;2022-08-01T00:10:41;5.53;;;2.13;;
18997;SDS011;9632;51.018;4.284;2022-08-01T00:13:06;4.75;;;1.92;;
18997;SDS011;9632;51.018;4.284;2022-08-01T00:15:32;3.35;;;1.52;;
18997;SDS011;9632;51.018;4.284;2022-08-01T00:17:58;4.85;;;2.38;;
18997;SDS011;9632;51.018;4.284;2022-08-01T00:20:24;5.13;;;2.30;;
18997;SDS011;9632;51.018;4.284;2022-08-01T00:22:50;4.38;;;1.92;;
18997;SDS011;9632;51.018;4.284;2022-08-01T00:25:15;4.75;;;2.00;;
18997;SDS011;9632;51.018;4.284;2022-08-01T00:27:41;6.22;;;2.63;;
18997;SDS011;9632;51.018;4.284;2022-08-01T00:30:07;7.18;;;2.10;;
18997;SDS011;9632;51.018;4.284;2022-08-01T00:32:33;4.82;;;2.38;;
18997;SDS011;9632;51.018;4.284;2022-08-01T00:34:58;4.30;;;2.08;;
18997;SDS011;9632;51.018;4.284;2022-08-01T00:37:24;3.65;;;2.05;;
18997;SDS011;9632;51.018;4.284;2022-08-01T00:39:50;6.13;;;2.58;;
18997;SDS011;9632;51.018;4.284;2022-08-01T00:42:15;3.92;;;1.88;;
18997;SDS011;9632;51.018;4.284;2022-08-01T00:44:41;4.57;;;2.25;;
18997;SDS011;9632;51.018;4.284;2022-08-01T00:47:07;4.85;;;2.00;;
18997;SDS011;9632;51.018;4.284;2022-08-01T00:49:33;4.45;;;2.22;;
18997;SDS011;9632;51.018;4.284;2022-08-01T00:51:59;6.70;;;2.97;;
18997;SDS011;9632;51.018;4.284;2022-08-01T00:54:25;7.82;;;2.40;;
18997;SDS011;9632;51.018;4.284;2022-08-01T00:56:52;5.20;;;2.53;;
18997;SDS011;9632;51.018;4.284;2022-08-01T00:59:18;7.40;;;2.83;;
18997;SDS011;9632;51.018;4.284;2022-08-01T01:01:46;5.93;;;3.00;;
18997;SDS011;9632;51.018;4.284;2022-08-01T01:04:12;6.00;;;2.60;;
18997;SDS011;9632;51.018;4.284;2022-08-01T01:06:41;6.28;;;2.85;;
18997;SDS011;9632;51.018;4.284;2022-08-01T01:17:27;7.55;;;4.05;;
18997;SDS011;9632;51.018;4.284;2022-08-01T01:19:57;9.00;;;4.03;;
18997;SDS011;9632;51.018;4.284;2022-08-01T01:22:27;10.73;;;4.63;;
18997;SDS011;9632;51.018;4.284;2022-08-01T01:30:25;14.45;;;5.10;;
18997;SDS011;9632;51.018;4.284;2022-08-01T01:32:54;11.88;;;5.35;;
18997;SDS011;9632;51.018;4.284;2022-08-01T01:35:27;13.63;;;6.05;;
18997;SDS011;9632;51.018;4.284;2022-08-01T01:37:58;14.27;;;5.93;;
18997;SDS011;9632;51.018;4.284;2022-08-01T01:40:52;12.48;;;5.70;;
18997;SDS011;9632;51.018;4.284;2022-08-01T01:43:18;12.77;;;5.85;;
18997;SDS011;9632;51.018;4.284;2022-08-01T01:45:45;22.10;;;6.15;;
18997;SDS011;9632;51.018;4.284;2022-08-01T01:48:13;13.60;;;5.82;;
18997;SDS011;9632;51.018;4.284;2022-08-01T01:50:45;15.55;;;6.10;;
18997;SDS011;9632;51.018;4.284;2022-08-01T01:53:13;14.98;;;5.60;;
18997;SDS011;9632;51.018;4.284;2022-08-01T01:55:43;12.02;;;5.18;;
18997;SDS011;9632;51.018;4.284;2022-08-01T01:58:12;15.25;;;5.65;;
18997;SDS011;9632;51.018;4.284;2022-08-01T02:00:39;10.75;;;5.28;;
18997;SDS011;9632;51.018;4.284;2022-08-01T02:03:08;14.93;;;5.93;;
18997;SDS011;9632;51.018;4.284;2022-08-01T02:05:36;11.70;;;5.68;;
18997;SDS011;9632;51.018;4.284;2022-08-01T02:08:03;16.15;;;6.50;;
18997;SDS011;9632;51.018;4.284;2022-08-01T02:10:31;17.13;;;6.40;;
18997;SDS011;9632;51.018;4.284;2022-08-01T02:12:57;17.48;;;6.68;;
18997;SDS011;9632;51.018;4.284;2022-08-01T02:15:28;14.18;;;6.13;;
18997;SDS011;9632;51.018;4.284;2022-08-01T02:17:56;16.63;;;7.20;;
18997;SDS011;9632;51.018;4.284;2022-08-01T02:20:24;17.30;;;6.75;;
18997;SDS011;9632;51.018;4.284;2022-08-01T02:22:53;16.67;;;5.90;;
18997;SDS011;9632;51.018;4.284;2022-08-01T02:25:48;17.45;;;6.80;;
18997;SDS011;9632;51.018;4.284;2022-08-01T02:28:17;22.42;;;8.23;;
18997;SDS011;9632;51.018;4.284;2022-08-01T02:30:53;18.45;;;6.97;;
18997;SDS011;9632;51.018;4.284;2022-08-01T02:33:23;22.67;;;7.90;;
18997;SDS011;9632;51.018;4.284;2022-08-01T02:35:54;15.55;;;6.82;;
18997;SDS011;9632;51.018;4.284;2022-08-01T02:38:23;18.15;;;7.25;;
18997;SDS011;9632;51.018;4.284;2022-08-01T02:40:52;15.23;;;6.82;;
18997;SDS011;9632;51.018;4.284;2022-08-01T02:43:23;14.10;;;6.88;;
18997;SDS011;9632;51.018;4.284;2022-08-01T02:45:52;13.23;;;6.05;;
18997;SDS011;9632;51.018;4.284;2022-08-01T02:48:23;17.10;;;6.10;;
18997;SDS011;9632;51.018;4.284;2022-08-01T02:50:51;10.80;;;6.15;;
18997;SDS011;9632;51.018;4.284;2022-08-01T02:53:20;16.13;;;7.47;;
18997;SDS011;9632;51.018;4.284;2022-08-01T02:55:48;13.38;;;6.20;;
18997;SDS011;9632;51.018;4.284;2022-08-01T02:58:16;17.33;;;7.60;;
18997;SDS011;9632;51.018;4.284;2022-08-01T03:00:45;17.38;;;7.60;;
18997;SDS011;9632;51.018;4.284;2022-08-01T03:03:12;18.30;;;8.18;;
18997;SDS011;9632;51.018;4.284;2022-08-01T03:05:39;19.08;;;8.77;;
18997;SDS011;9632;51.018;4.284;2022-08-01T03:08:06;18.73;;;8.90;;
18997;SDS011;9632;51.018;4.284;2022-08-01T03:10:33;15.38;;;8.93;;
18997;SDS011;9632;51.018;4.284;2022-08-01T03:13:02;15.93;;;9.38;;
18997;SDS011;9632;51.018;4.284;2022-08-01T03:15:29;16.65;;;8.45;;
18997;SDS011;9632;51.018;4.284;2022-08-01T03:17:57;18.42;;;9.30;;
18997;SDS011;9632;51.018;4.284;2022-08-01T03:20:26;18.38;;;9.90;;
18997;SDS011;9632;51.018;4.284;2022-08-01T03:22:53;13.00;;;7.57;;
18997;SDS011;9632;51.018;4.284;2022-08-01T03:25:21;12.63;;;7.22;;
18997;SDS011;9632;51.018;4.284;2022-08-01T03:27:50;17.58;;;8.63;;
18997;SDS011;9632;51.018;4.284;2022-08-01T03:30:21;10.95;;;7.20;;
18997;SDS011;9632;51.018;4.284;2022-08-01T03:32:48;12.10;;;8.05;;
18997;SDS011;9632;51.018;4.284;2022-08-01T03:35:14;13.38;;;7.30;;
18997;SDS011;9632;51.018;4.284;2022-08-01T03:37:47;12.93;;;7.68;;
18997;SDS011;9632;51.018;4.284;2022-08-01T03:43:02;14.30;;;7.90;;
18997;SDS011;9632;51.018;4.284;2022-08-01T03:45:31;9.63;;;6.47;;
18997;SDS011;9632;51.018;4.284;2022-08-01T03:48:02;14.05;;;7.45;;
18997;SDS011;9632;51.018;4.284;2022-08-01T03:50:39;12.35;;;6.93;;
18997;SDS011;9632;51.018;4.284;2022-08-01T03:53:08;10.82;;;6.57;;
18997;SDS011;9632;51.018;4.284;2022-08-01T03:55:36;13.15;;;7.22;;
18997;SDS011;9632;51.018;4.284;2022-08-01T03:58:04;12.23;;;6.25;;
18997;SDS011;9632;51.018;4.284;2022-08-01T04:00:31;10.52;;;6.30;;
18997;SDS011;9632;51.018;4.284;2022-08-01T04:02:57;10.45;;;5.97;;
18997;SDS011;9632;51.018;4.284;2022-08-01T04:05:23;9.23;;;5.57;;
18997;SDS011;9632;51.018;4.284;2022-08-01T04:07:50;11.20;;;6.15;;
18997;SDS011;9632;51.018;4.284;2022-08-01T04:10:24;14.57;;;6.78;;
18997;SDS011;9632;51.018;4.284;2022-08-01T04:12:50;12.10;;;6.18;;
18997;SDS011;9632;51.018;4.284;2022-08-01T04:15:16;12.90;;;6.30;;
18997;SDS011;9632;51.018;4.284;2022-08-01T04:17:42;13.98;;;6.57;;
18997;SDS011;9632;51.018;4.284;2022-08-01T04:20:09;6.70;;;4.38;;
18997;SDS011;9632;51.018;4.284;2022-08-01T04:22:36;12.32;;;6.22;;
18997;SDS011;9632;51.018;4.284;2022-08-01T04:25:02;11.82;;;6.38;;
18997;SDS011;9632;51.018;4.284;2022-08-01T04:27:36;8.85;;;5.25;;
18997;SDS011;9632;51.018;4.284;2022-08-01T04:30:04;7.85;;;5.28;;
18997;SDS011;9632;51.018;4.284;2022-08-01T04:32:35;12.23;;;5.93;;
18997;SDS011;9632;51.018;4.284;2022-08-01T04:35:04;12.90;;;6.47;;
18997;SDS011;9632;51.018;4.284;2022-08-01T04:37:34;11.20;;;5.95;;
18997;SDS011;9632;51.018;4.284;2022-08-01T04:40:03;9.90;;;5.45;;
18997;SDS011;9632;51.018;4.284;2022-08-01T04:42:30;10.18;;;6.30;;
18997;SDS011;9632;51.018;4.284;2022-08-01T04:44:57;10.07;;;5.55;;
18997;SDS011;9632;51.018;4.284;2022-08-01T04:47:23;9.77;;;5.57;;
18997;SDS011;9632;51.018;4.284;2022-08-01T04:49:50;6.07;;;4.90;;
18997;SDS011;9632;51.018;4.284;2022-08-01T04:52:16;8.93;;;5.20;;
18997;SDS011;9632;51.018;4.284;2022-08-01T04:54:43;8.77;;;5.07;;
18997;SDS011;9632;51.018;4.284;2022-08-01T04:57:08;8.55;;;4.88;;
18997;SDS011;9632;51.018;4.284;2022-08-01T04:59:35;6.38;;;4.53;;
18997;SDS011;9632;51.018;4.284;2022-08-01T05:02:13;8.15;;;4.40;;
18997;SDS011;9632;51.018;4.284;2022-08-01T05:04:41;10.73;;;6.57;;
18997;SDS011;9632;51.018;4.284;2022-08-01T05:07:08;8.02;;;5.20;;
18997;SDS011;9632;51.018;4.284;2022-08-01T05:09:35;8.95;;;5.18;;
18997;SDS011;9632;51.018;4.284;2022-08-01T05:12:01;8.43;;;4.45;;
18997;SDS011;9632;51.018;4.284;2022-08-01T05:14:29;9.88;;;5.97;;
18997;SDS011;9632;51.018;4.284;2022-08-01T05:16:57;8.75;;;5.18;;
18997;SDS011;9632;51.018;4.284;2022-08-01T05:19:28;9.50;;;5.20;;
18997;SDS011;9632;51.018;4.284;2022-08-01T05:21:56;6.68;;;4.20;;
18997;SDS011;9632;51.018;4.284;2022-08-01T05:24:29;8.20;;;4.57;;
18997;SDS011;9632;51.018;4.284;2022-08-01T05:26:57;8.38;;;4.63;;
18997;SDS011;9632;51.018;4.284;2022-08-01T05:29:23;5.65;;;3.63;;
18997;SDS011;9632;51.018;4.284;2022-08-01T05:31:50;9.90;;;5.15;;
18997;SDS011;9632;51.018;4.284;2022-08-01T05:34:16;7.05;;;4.15;;
18997;SDS011;9632;51.018;4.284;2022-08-01T05:36:42;8.07;;;4.78;;
18997;SDS011;9632;51.018;4.284;2022-08-01T05:39:08;7.93;;;5.30;;
18997;SDS011;9632;51.018;4.284;2022-08-01T05:41:35;7.45;;;4.18;;
18997;SDS011;9632;51.018;4.284;2022-08-01T05:44:01;8.05;;;4.00;;
18997;SDS011;9632;51.018;4.284;2022-08-01T05:46:28;8.80;;;4.68;;
18997;SDS011;9632;51.018;4.284;2022-08-01T05:48:55;5.35;;;3.72;;
18997;SDS011;9632;51.018;4.284;2022-08-01T05:51:21;8.55;;;3.55;;
18997;SDS011;9632;51.018;4.284;2022-08-01T05:53:47;7.53;;;3.70;;
18997;SDS011;9632;51.018;4.284;2022-08-01T05:56:13;7.55;;;4.03;;
18997;SDS011;9632;51.018;4.284;2022-08-01T05:58:39;5.32;;;3.17;;
18997;SDS011;9632;51.018;4.284;2022-08-01T06:01:04;4.97;;;2.92;;
18997;SDS011;9632;51.018;4.284;2022-08-01T06:03:30;7.30;;;3.63;;
18997;SDS011;9632;51.018;4.284;2022-08-01T06:05:58;7.03;;;2.90;;
18997;SDS011;9632;51.018;4.284;2022-08-01T06:08:24;5.35;;;2.45;;
18997;SDS011;9632;51.018;4.284;2022-08-01T06:10:50;4.57;;;2.65;;
18997;SDS011;9632;51.018;4.284;2022-08-01T06:13:15;4.50;;;2.22;;
18997;SDS011;9632;51.018;4.284;2022-08-01T06:15:43;7.03;;;3.28;;
18997;SDS011;9632;51.018;4.284;2022-08-01T06:18:08;7.22;;;3.30;;
18997;SDS011;9632;51.018;4.284;2022-08-01T06:20:34;6.38;;;3.17;;
18997;SDS011;9632;51.018;4.284;2022-08-01T06:23:00;7.35;;;3.35;;
18997;SDS011;9632;51.018;4.284;2022-08-01T06:25:25;5.10;;;2.50;;
18997;SDS011;9632;51.018;4.284;2022-08-01T06:27:51;7.25;;;3.10;;
18997;SDS011;9632;51.018;4.284;2022-08-01T06:30:17;9.60;;;3.20;;
18997;SDS011;9632;51.018;4.284;2022-08-01T06:32:43;6.40;;;3.08;;
18997;SDS011;9632;51.018;4.284;2022-08-01T06:35:08;5.30;;;2.95;;
18997;SDS011;9632;51.018;4.284;2022-08-01T06:37:34;5.80;;;2.38;;
18997;SDS011;9632;51.018;4.284;2022-08-01T06:40:01;9.10;;;2.88;;
18997;SDS011;9632;51.018;4.284;2022-08-01T06:42:28;7.95;;;2.95;;
18997;SDS011;9632;51.018;4.284;2022-08-01T06:44:54;6.13;;;2.28;;
18997;SDS011;9632;51.018;4.284;2022-08-01T06:47:19;4.85;;;2.28;;
18997;SDS011;9632;51.018;4.284;2022-08-01T06:49:45;4.85;;;2.28;;
18997;SDS011;9632;51.018;4.284;2022-08-01T06:52:10;4.28;;;2.17;;
18997;SDS011;9632;51.018;4.284;2022-08-01T06:54:36;5.40;;;2.00;;
18997;SDS011;9632;51.018;4.284;2022-08-01T06:57:04;3.55;;;1.90;;
18997;SDS011;9632;51.018;4.284;2022-08-01T06:59:30;4.43;;;1.70;;
18997;SDS011;9632;51.018;4.284;2022-08-01T07:01:56;2.92;;;1.75;;
18997;SDS011;9632;51.018;4.284;2022-08-01T07:04:21;2.40;;;1.10;;
18997;SDS011;9632;51.018;4.284;2022-08-01T07:06:47;2.95;;;1.25;;
18997;SDS011;9632;51.018;4.284;2022-08-01T07:09:13;4.15;;;1.30;;
18997;SDS011;9632;51.018;4.284;2022-08-01T07:11:38;2.65;;;1.20;;
18997;SDS011;9632;51.018;4.284;2022-08-01T07:14:04;1.80;;;0.90;;
18997;SDS011;9632;51.018;4.284;2022-08-01T07:16:29;4.18;;;1.15;;
18997;SDS011;9632;51.018;4.284;2022-08-01T07:18:55;1.95;;;0.98;;
18997;SDS011;9632;51.018;4.284;2022-08-01T07:21:21;3.38;;;0.80;;
18997;SDS011;9632;51.018;4.284;2022-08-01T07:23:46;1.80;;;0.80;;
18997;SDS011;9632;51.018;4.284;2022-08-01T07:26:12;1.33;;;0.80;;
18997;SDS011;9632;51.018;4.284;2022-08-01T07:28:38;3.28;;;0.80;;
18997;SDS011;9632;51.018;4.284;2022-08-01T07:31:03;1.23;;;0.55;;
18997;SDS011;9632;51.018;4.284;2022-08-01T07:33:29;1.30;;;0.63;;
18997;SDS011;9632;51.018;4.284;2022-08-01T07:35:55;2.17;;;0.70;;
18997;SDS011;9632;51.018;4.284;2022-08-01T07:38:21;1.35;;;0.68;;
18997;SDS011;9632;51.018;4.284;2022-08-01T07:40:46;2.55;;;0.63;;
18997;SDS011;9632;51.018;4.284;2022-08-01T07:43:12;2.45;;;0.70;;
18997;SDS011;9632;51.018;4.284;2022-08-01T07:45:38;1.85;;;0.70;;
18997;SDS011;9632;51.018;4.284;2022-08-01T07:48:05;1.00;;;0.40;;
18997;SDS011;9632;51.018;4.284;2022-08-01T07:50:32;2.60;;;0.45;;
18997;SDS011;9632;51.018;4.284;2022-08-01T07:52:58;1.67;;;0.40;;
18997;SDS011;9632;51.018;4.284;2022-08-01T07:55:24;1.00;;;0.45;;
18997;SDS011;9632;51.018;4.284;2022-08-01T07:57:50;1.30;;;0.50;;
18997;SDS011;9632;51.018;4.284;2022-08-01T08:00:16;0.60;;;0.43;;
18997;SDS011;9632;51.018;4.284;2022-08-01T08:02:42;1.38;;;0.40;;
18997;SDS011;9632;51.018;4.284;2022-08-01T08:05:07;3.90;;;0.65;;
18997;SDS011;9632;51.018;4.284;2022-08-01T08:07:33;0.88;;;0.30;;
18997;SDS011;9632;51.018;4.284;2022-08-01T08:09:59;1.52;;;0.50;;
18997;SDS011;9632;51.018;4.284;2022-08-01T08:12:24;1.70;;;0.50;;
18997;SDS011;9632;51.018;4.284;2022-08-01T08:14:50;1.40;;;0.60;;
18997;SDS011;9632;51.018;4.284;2022-08-01T08:17:16;1.45;;;0.60;;
18997;SDS011;9632;51.018;4.284;2022-08-01T08:19:41;2.83;;;0.40;;
18997;SDS011;9632;51.018;4.284;2022-08-01T08:22:07;1.92;;;0.40;;
18997;SDS011;9632;51.018;4.284;2022-08-01T08:24:34;1.23;;;0.40;;
18997;SDS011;9632;51.018;4.284;2022-08-01T08:27:00;1.98;;;0.30;;
18997;SDS011;9632;51.018;4.284;2022-08-01T08:29:27;0.45;;;0.20;;
18997;SDS011;9632;51.018;4.284;2022-08-01T08:31:57;0.90;;;0.20;;
18997;SDS011;9632;51.018;4.284;2022-08-01T08:34:25;1.30;;;0.32;;
18997;SDS011;9632;51.018;4.284;2022-08-01T08:36:51;1.55;;;0.30;;
18997;SDS011;9632;51.018;4.284;2022-08-01T08:39:19;0.70;;;0.30;;
18997;SDS011;9632;51.018;4.284;2022-08-01T08:41:45;0.35;;;0.30;;
18997;SDS011;9632;51.018;4.284;2022-08-01T08:44:11;0.60;;;0.30;;
18997;SDS011;9632;51.018;4.284;2022-08-01T08:46:40;1.25;;;0.40;;
18997;SDS011;9632;51.018;4.284;2022-08-01T08:49:09;1.98;;;0.35;;
18997;SDS011;9632;51.018;4.284;2022-08-01T08:51:37;1.13;;;0.40;;
18997;SDS011;9632;51.018;4.284;2022-08-01T08:54:05;2.00;;;0.40;;
18997;SDS011;9632;51.018;4.284;2022-08-01T08:56:32;1.15;;;0.30;;
18997;SDS011;9632;51.018;4.284;2022-08-01T08:59:00;0.68;;;0.28;;
18997;SDS011;9632;51.018;4.284;2022-08-01T09:01:27;0.82;;;0.40;;
18997;SDS011;9632;51.018;4.284;2022-08-01T09:03:53;1.05;;;0.32;;
18997;SDS011;9632;51.018;4.284;2022-08-01T09:06:19;0.77;;;0.32;;
18997;SDS011;9632;51.018;4.284;2022-08-01T09:08:45;0.98;;;0.50;;
18997;SDS011;9632;51.018;4.284;2022-08-01T09:11:11;1.48;;;0.50;;
18997;SDS011;9632;51.018;4.284;2022-08-01T09:13:37;1.45;;;0.40;;
18997;SDS011;9632;51.018;4.284;2022-08-01T09:16:02;1.85;;;0.40;;
18997;SDS011;9632;51.018;4.284;2022-08-01T09:18:39;3.00;;;0.40;;
18997;SDS011;9632;51.018;4.284;2022-08-01T09:21:11;2.67;;;0.40;;
18997;SDS011;9632;51.018;4.284;2022-08-01T09:23:43;0.60;;;0.35;;
18997;SDS011;9632;51.018;4.284;2022-08-01T09:26:11;1.80;;;0.47;;
18997;SDS011;9632;51.018;4.284;2022-08-01T09:28:38;1.65;;;0.75;;
18997;SDS011;9632;51.018;4.284;2022-08-01T09:31:08;2.90;;;0.30;;
18997;SDS011;9632;51.018;4.284;2022-08-01T09:36:21;0.30;;;0.30;;
18997;SDS011;9632;51.018;4.284;2022-08-01T09:38:49;1.08;;;0.50;;
18997;SDS011;9632;51.018;4.284;2022-08-01T09:41:16;2.45;;;0.60;;
18997;SDS011;9632;51.018;4.284;2022-08-01T09:43:47;3.17;;;0.60;;
18997;SDS011;9632;51.018;4.284;2022-08-01T09:46:15;0.35;;;0.30;;
18997;SDS011;9632;51.018;4.284;2022-08-01T09:51:51;0.57;;;0.30;;
18997;SDS011;9632;51.018;4.284;2022-08-01T09:54:17;0.55;;;0.30;;
18997;SDS011;9632;51.018;4.284;2022-08-01T09:56:53;1.80;;;0.50;;
18997;SDS011;9632;51.018;4.284;2022-08-01T09:59:35;0.98;;;0.30;;
18997;SDS011;9632;51.018;4.284;2022-08-01T10:02:03;1.85;;;0.40;;
18997;SDS011;9632;51.018;4.284;2022-08-01T10:04:28;1.77;;;0.52;;
18997;SDS011;9632;51.018;4.284;2022-08-01T10:07:02;4.05;;;0.55;;
18997;SDS011;9632;51.018;4.284;2022-08-01T10:09:31;1.63;;;0.60;;
18997;SDS011;9632;51.018;4.284;2022-08-01T10:11:59;2.35;;;0.47;;
18997;SDS011;9632;51.018;4.284;2022-08-01T10:14:26;1.75;;;0.47;;
18997;SDS011;9632;51.018;4.284;2022-08-01T10:16:53;4.05;;;0.50;;
18997;SDS011;9632;51.018;4.284;2022-08-01T10:19:22;1.02;;;0.50;;
18997;SDS011;9632;51.018;4.284;2022-08-01T10:21:49;1.48;;;0.52;;
18997;SDS011;9632;51.018;4.284;2022-08-01T10:24:17;2.70;;;0.57;;
18997;SDS011;9632;51.018;4.284;2022-08-01T10:26:48;2.28;;;0.60;;
18997;SDS011;9632;51.018;4.284;2022-08-01T10:29:16;3.35;;;0.50;;
18997;SDS011;9632;51.018;4.284;2022-08-01T10:31:45;3.00;;;0.52;;
18997;SDS011;9632;51.018;4.284;2022-08-01T10:34:12;2.63;;;0.43;;
18997;SDS011;9632;51.018;4.284;2022-08-01T10:36:41;2.00;;;0.60;;
18997;SDS011;9632;51.018;4.284;2022-08-01T10:39:09;1.73;;;0.50;;
18997;SDS011;9632;51.018;4.284;2022-08-01T10:41:36;1.90;;;0.70;;
18997;SDS011;9632;51.018;4.284;2022-08-01T10:44:06;2.90;;;0.80;;
18997;SDS011;9632;51.018;4.284;2022-08-01T10:46:32;1.30;;;0.60;;
18997;SDS011;9632;51.018;4.284;2022-08-01T10:49:04;2.67;;;0.60;;
18997;SDS011;9632;51.018;4.284;2022-08-01T10:51:37;2.80;;;0.63;;
18997;SDS011;9632;51.018;4.284;2022-08-01T10:54:07;1.58;;;0.52;;
18997;SDS011;9632;51.018;4.284;2022-08-01T10:56:44;4.32;;;0.70;;
18997;SDS011;9632;51.018;4.284;2022-08-01T10:59:15;1.88;;;0.47;;
18997;SDS011;9632;51.018;4.284;2022-08-01T11:01:55;3.92;;;0.70;;
18997;SDS011;9632;51.018;4.284;2022-08-01T11:05:04;4.32;;;0.80;;
18997;SDS011;9632;51.018;4.284;2022-08-01T11:07:40;5.00;;;0.90;;
18997;SDS011;9632;51.018;4.284;2022-08-01T11:10:32;2.35;;;0.70;;
18997;SDS011;9632;51.018;4.284;2022-08-01T11:13:04;2.95;;;0.65;;
18997;SDS011;9632;51.018;4.284;2022-08-01T11:15:32;2.60;;;0.50;;
18997;SDS011;9632;51.018;4.284;2022-08-01T11:18:03;1.65;;;0.50;;
18997;SDS011;9632;51.018;4.284;2022-08-01T11:20:58;1.30;;;0.55;;
18997;SDS011;9632;51.018;4.284;2022-08-01T11:23:28;3.13;;;0.77;;
18997;SDS011;9632;51.018;4.284;2022-08-01T11:28:21;1.83;;;0.55;;
18997;SDS011;9632;51.018;4.284;2022-08-01T11:30:52;2.58;;;0.80;;
18997;SDS011;9632;51.018;4.284;2022-08-01T11:41:16;3.38;;;0.70;;
18997;SDS011;9632;51.018;4.284;2022-08-01T11:44:08;3.10;;;0.73;;
18997;SDS011;9632;51.018;4.284;2022-08-01T11:46:49;2.30;;;0.73;;
18997;SDS011;9632;51.018;4.284;2022-08-01T11:49:28;1.90;;;0.60;;
18997;SDS011;9632;51.018;4.284;2022-08-01T11:54:49;1.80;;;0.60;;
18997;SDS011;9632;51.018;4.284;2022-08-01T11:59:51;1.88;;;0.57;;
18997;SDS011;9632;51.018;4.284;2022-08-01T12:02:32;2.13;;;0.73;;
18997;SDS011;9632;51.018;4.284;2022-08-01T12:05:03;1.48;;;0.50;;
18997;SDS011;9632;51.018;4.284;2022-08-01T12:07:33;2.85;;;0.50;;
18997;SDS011;9632;51.018;4.284;2022-08-01T12:10:07;3.72;;;0.60;;
18997;SDS011;9632;51.018;4.284;2022-08-01T12:12:44;1.98;;;0.50;;
18997;SDS011;9632;51.018;4.284;2022-08-01T12:15:11;0.98;;;0.60;;
18997;SDS011;9632;51.018;4.284;2022-08-01T12:17:39;1.20;;;0.43;;
18997;SDS011;9632;51.018;4.284;2022-08-01T12:20:24;2.17;;;0.50;;
18997;SDS011;9632;51.018;4.284;2022-08-01T12:22:54;1.60;;;0.45;;
18997;SDS011;9632;51.018;4.284;2022-08-01T12:25:21;1.25;;;0.40;;
18997;SDS011;9632;51.018;4.284;2022-08-01T12:27:47;2.60;;;0.52;;
18997;SDS011;9632;51.018;4.284;2022-08-01T12:32:44;1.63;;;0.50;;
18997;SDS011;9632;51.018;4.284;2022-08-01T12:35:17;1.02;;;0.60;;
18997;SDS011;9632;51.018;4.284;2022-08-01T12:37:50;3.17;;;0.80;;
18997;SDS011;9632;51.018;4.284;2022-08-01T12:40:25;3.60;;;0.52;;
18997;SDS011;9632;51.018;4.284;2022-08-01T12:42:55;1.67;;;0.50;;
18997;SDS011;9632;51.018;4.284;2022-08-01T12:45:42;2.33;;;0.50;;
18997;SDS011;9632;51.018;4.284;2022-08-01T12:48:09;2.95;;;0.63;;
18997;SDS011;9632;51.018;4.284;2022-08-01T12:50:37;1.45;;;0.50;;
18997;SDS011;9632;51.018;4.284;2022-08-01T12:53:04;3.95;;;0.70;;
18997;SDS011;9632;51.018;4.284;2022-08-01T12:55:30;2.15;;;0.50;;
18997;SDS011;9632;51.018;4.284;2022-08-01T12:58:06;2.20;;;0.45;;
18997;SDS011;9632;51.018;4.284;2022-08-01T13:00:34;1.58;;;0.60;;
18997;SDS011;9632;51.018;4.284;2022-08-01T13:03:04;1.25;;;0.50;;
18997;SDS011;9632;51.018;4.284;2022-08-01T13:05:44;2.53;;;0.70;;
18997;SDS011;9632;51.018;4.284;2022-08-01T13:08:15;2.75;;;0.60;;
18997;SDS011;9632;51.018;4.284;2022-08-01T13:10:42;5.43;;;0.63;;
18997;SDS011;9632;51.018;4.284;2022-08-01T13:13:09;1.98;;;0.43;;
18997;SDS011;9632;51.018;4.284;2022-08-01T13:15:36;3.08;;;0.52;;
18997;SDS011;9632;51.018;4.284;2022-08-01T13:18:24;0.98;;;0.60;;
18997;SDS011;9632;51.018;4.284;2022-08-01T13:21:19;1.42;;;0.50;;
18997;SDS011;9632;51.018;4.284;2022-08-01T13:24:05;2.90;;;0.60;;
18997;SDS011;9632;51.018;4.284;2022-08-01T13:26:38;2.95;;;0.50;;
18997;SDS011;9632;51.018;4.284;2022-08-01T13:29:04;1.33;;;0.50;;
18997;SDS011;9632;51.018;4.284;2022-08-01T13:31:34;0.60;;;0.40;;
18997;SDS011;9632;51.018;4.284;2022-08-01T13:34:02;1.95;;;0.40;;
18997;SDS011;9632;51.018;4.284;2022-08-01T13:36:28;4.97;;;0.70;;
18997;SDS011;9632;51.018;4.284;2022-08-01T13:38:55;2.53;;;0.70;;
18997;SDS011;9632;51.018;4.284;2022-08-01T13:41:40;1.58;;;0.30;;
18997;SDS011;9632;51.018;4.284;2022-08-01T13:44:06;0.38;;;0.30;;
18997;SDS011;9632;51.018;4.284;2022-08-01T13:46:33;0.93;;;0.40;;
18997;SDS011;9632;51.018;4.284;2022-08-01T13:48:59;1.08;;;0.40;;
18997;SDS011;9632;51.018;4.284;2022-08-01T13:51:25;0.95;;;0.30;;
18997;SDS011;9632;51.018;4.284;2022-08-01T13:53:51;0.25;;;0.25;;
18997;SDS011;9632;51.018;4.284;2022-08-01T13:56:16;0.75;;;0.40;;
18997;SDS011;9632;51.018;4.284;2022-08-01T13:58:43;3.15;;;0.40;;
18997;SDS011;9632;51.018;4.284;2022-08-01T14:01:08;0.77;;;0.40;;
18997;SDS011;9632;51.018;4.284;2022-08-01T14:03:34;1.63;;;0.43;;
18997;SDS011;9632;51.018;4.284;2022-08-01T14:06:00;0.80;;;0.40;;
18997;SDS011;9632;51.018;4.284;2022-08-01T14:08:26;0.93;;;0.40;;
18997;SDS011;9632;51.018;4.284;2022-08-01T14:10:52;0.98;;;0.40;;
18997;SDS011;9632;51.018;4.284;2022-08-01T14:13:22;2.17;;;0.45;;
18997;SDS011;9632;51.018;4.284;2022-08-01T14:15:48;1.33;;;0.45;;
18997;SDS011;9632;51.018;4.284;2022-08-01T14:18:14;1.00;;;0.47;;
18997;SDS011;9632;51.018;4.284;2022-08-01T14:20:40;6.25;;;0.88;;
18997;SDS011;9632;51.018;4.284;2022-08-01T14:23:06;1.13;;;0.50;;
18997;SDS011;9632;51.018;4.284;2022-08-01T14:25:32;1.42;;;0.40;;
18997;SDS011;9632;51.018;4.284;2022-08-01T14:27:58;2.88;;;0.60;;
18997;SDS011;9632;51.018;4.284;2022-08-01T14:30:23;0.52;;;0.40;;
18997;SDS011;9632;51.018;4.284;2022-08-01T14:32:49;2.78;;;0.40;;
18997;SDS011;9632;51.018;4.284;2022-08-01T14:35:14;0.98;;;0.40;;
18997;SDS011;9632;51.018;4.284;2022-08-01T14:37:40;1.08;;;0.50;;
18997;SDS011;9632;51.018;4.284;2022-08-01T14:40:06;1.13;;;0.40;;
18997;SDS011;9632;51.018;4.284;2022-08-01T14:42:34;1.00;;;0.40;;
18997;SDS011;9632;51.018;4.284;2022-08-01T14:45:01;0.52;;;0.35;;
18997;SDS011;9632;51.018;4.284;2022-08-01T14:47:28;1.35;;;0.40;;
18997;SDS011;9632;51.018;4.284;2022-08-01T14:49:53;0.57;;;0.43;;
18997;SDS011;9632;51.018;4.284;2022-08-01T14:52:19;49.08;;;3.20;;
18997;SDS011;9632;51.018;4.284;2022-08-01T14:54:45;1.75;;;0.68;;
18997;SDS011;9632;51.018;4.284;2022-08-01T14:57:10;1.58;;;0.45;;
18997;SDS011;9632;51.018;4.284;2022-08-01T14:59:36;1.67;;;0.50;;
18997;SDS011;9632;51.018;4.284;2022-08-01T15:02:02;2.20;;;0.55;;
18997;SDS011;9632;51.018;4.284;2022-08-01T15:04:28;2.33;;;0.40;;
18997;SDS011;9632;51.018;4.284;2022-08-01T15:06:55;2.13;;;0.60;;
18997;SDS011;9632;51.018;4.284;2022-08-01T15:09:21;2.92;;;0.52;;
18997;SDS011;9632;51.018;4.284;2022-08-01T15:11:48;2.03;;;0.50;;
18997;SDS011;9632;51.018;4.284;2022-08-01T15:14:13;1.50;;;0.47;;
18997;SDS011;9632;51.018;4.284;2022-08-01T15:16:58;1.23;;;0.50;;
18997;SDS011;9632;51.018;4.284;2022-08-01T15:19:23;1.50;;;0.50;;
18997;SDS011;9632;51.018;4.284;2022-08-01T15:21:49;1.63;;;0.50;;
18997;SDS011;9632;51.018;4.284;2022-08-01T15:24:14;1.55;;;0.60;;
18997;SDS011;9632;51.018;4.284;2022-08-01T15:26:40;3.30;;;0.50;;
18997;SDS011;9632;51.018;4.284;2022-08-01T15:29:06;2.65;;;0.70;;
18997;SDS011;9632;51.018;4.284;2022-08-01T15:31:31;3.72;;;0.50;;
18997;SDS011;9632;51.018;4.284;2022-08-01T15:33:57;2.05;;;0.57;;
18997;SDS011;9632;51.018;4.284;2022-08-01T15:36:22;2.70;;;0.70;;
18997;SDS011;9632;51.018;4.284;2022-08-01T15:38:48;1.95;;;0.63;;
18997;SDS011;9632;51.018;4.284;2022-08-01T15:41:14;2.72;;;0.60;;
18997;SDS011;9632;51.018;4.284;2022-08-01T15:43:39;2.70;;;0.70;;
18997;SDS011;9632;51.018;4.284;2022-08-01T15:46:05;1.85;;;0.60;;